sensor_id;sensor_type;location;lat;lon;timestamp;P1;durP1;ratioP1;P2;durP2;ratioP2
13250;SDS011;6692;50.710;7.180;2023-06-10T00:00:53;1999.90;;;999.90;;
13250;SDS011;6692;50.710;7.180;2023-06-10T00:02:54;1999.90;;;999.90;;
13250;SDS011;6692;50.710;7.180;2023-06-10T00:04:55;1999.90;;;999.90;;
13250;SDS011;6692;50.710;7.180;2023-06-10T00:06:55;1999.90;;;999.90;;
13250;SDS011;6692;50.710;7.180;2023-06-10T00:08:56;1999.90;;;999.90;;
13250;SDS011;6692;50.710;7.180;2023-06-10T00:10:57;1999.90;;;999.90;;
13250;SDS011;6692;50.710;7.180;2023-06-10T00:12:58;1999.90;;;999.90;;
13250;SDS011;6692;50.710;7.180;2023-06-10T00:14:58;1999.90;;;999.90;;
13250;SDS011;6692;50.710;7.180;2023-06-10T00:16:59;1999.90;;;999.90;;
13250;SDS011;6692;50.710;7.180;2023-06-10T00:19:00;1999.90;;;999.90;;
13250;SDS011;6692;50.710;7.180;2023-06-10T00:21:00;1999.90;;;999.90;;
13250;SDS011;6692;50.710;7.180;2023-06-10T00:23:01;1999.90;;;999.90;;
13250;SDS011;6692;50.710;7.180;2023-06-10T00:25:02;1999.90;;;999.90;;
13250;SDS011;6692;50.710;7.180;2023-06-10T00:27:03;1999.90;;;999.90;;
13250;SDS011;6692;50.710;7.180;2023-06-10T00:29:06;1999.90;;;999.90;;
13250;SDS011;6692;50.710;7.180;2023-06-10T00:31:06;1999.90;;;999.90;;
13250;SDS011;6692;50.710;7.180;2023-06-10T00:33:07;1999.90;;;999.90;;
13250;SDS011;6692;50.710;7.180;2023-06-10T00:35:08;1999.90;;;999.90;;
13250;SDS011;6692;50.710;7.180;2023-06-10T00:37:09;1999.90;;;999.90;;
13250;SDS011;6692;50.710;7.180;2023-06-10T00:39:10;1999.90;;;999.90;;
13250;SDS011;6692;50.710;7.180;2023-06-10T00:41:11;1999.90;;;999.90;;
13250;SDS011;6692;50.710;7.180;2023-06-10T00:43:12;1999.90;;;999.90;;
13250;SDS011;6692;50.710;7.180;2023-06-10T00:45:13;1999.90;;;999.90;;
13250;SDS011;6692;50.710;7.180;2023-06-10T00:47:13;1999.90;;;999.90;;
13250;SDS011;6692;50.710;7.180;2023-06-10T00:49:14;1999.90;;;999.90;;
13250;SDS011;6692;50.710;7.180;2023-06-10T00:51:15;1999.90;;;999.90;;
13250;SDS011;6692;50.710;7.180;2023-06-10T00:53:16;1999.90;;;999.90;;
13250;SDS011;6692;50.710;7.180;2023-06-10T00:55:17;1999.90;;;999.90;;
13250;SDS011;6692;50.710;7.180;2023-06-10T00:57:18;1999.90;;;999.90;;
13250;SDS011;6692;50.710;7.180;2023-06-10T00:59:19;1999.90;;;999.90;;
13250;SDS011;6692;50.710;7.180;2023-06-10T01:01:21;1999.90;;;999.90;;
13250;SDS011;6692;50.710;7.180;2023-06-10T01:03:21;1999.90;;;999.90;;
13250;SDS011;6692;50.710;7.180;2023-06-10T01:05:23;1999.90;;;999.90;;
13250;SDS011;6692;50.710;7.180;2023-06-10T01:07:28;1999.90;;;999.90;;
13250;SDS011;6692;50.710;7.180;2023-06-10T01:09:45;1999.90;;;999.90;;
13250;SDS011;6692;50.710;7.180;2023-06-10T01:11:49;1999.90;;;999.90;;
13250;SDS011;6692;50.710;7.180;2023-06-10T01:13:49;1999.90;;;999.90;;
13250;SDS011;6692;50.710;7.180;2023-06-10T01:15:49;1999.90;;;999.90;;
13250;SDS011;6692;50.710;7.180;2023-06-10T01:17:55;1999.90;;;999.90;;
13250;SDS011;6692;50.710;7.180;2023-06-10T01:19:56;1999.90;;;999.90;;
13250;SDS011;6692;50.710;7.180;2023-06-10T01:21:57;1999.90;;;999.90;;
13250;SDS011;6692;50.710;7.180;2023-06-10T01:23:58;1999.90;;;999.90;;
13250;SDS011;6692;50.710;7.180;2023-06-10T01:25:59;1999.90;;;999.90;;
13250;SDS011;6692;50.710;7.180;2023-06-10T01:28:02;1999.90;;;999.90;;
13250;SDS011;6692;50.710;7.180;2023-06-10T01:30:05;1999.90;;;999.90;;
13250;SDS011;6692;50.710;7.180;2023-06-10T01:32:08;1999.90;;;999.90;;
13250;SDS011;6692;50.710;7.180;2023-06-10T01:34:10;1999.90;;;999.90;;
13250;SDS011;6692;50.710;7.180;2023-06-10T01:36:10;1999.90;;;999.90;;
13250;SDS011;6692;50.710;7.180;2023-06-10T01:38:12;1999.90;;;999.90;;
13250;SDS011;6692;50.710;7.180;2023-06-10T01:40:13;1999.90;;;999.90;;
13250;SDS011;6692;50.710;7.180;2023-06-10T01:42:13;1999.90;;;999.90;;
13250;SDS011;6692;50.710;7.180;2023-06-10T01:44:17;1999.90;;;999.90;;
13250;SDS011;6692;50.710;7.180;2023-06-10T01:46:15;1999.90;;;999.90;;
13250;SDS011;6692;50.710;7.180;2023-06-10T01:48:15;1999.90;;;999.90;;
13250;SDS011;6692;50.710;7.180;2023-06-10T01:50:16;1999.90;;;999.90;;
13250;SDS011;6692;50.710;7.180;2023-06-10T01:52:17;1999.90;;;999.90;;
13250;SDS011;6692;50.710;7.180;2023-06-10T01:54:18;1999.90;;;999.90;;
13250;SDS011;6692;50.710;7.180;2023-06-10T01:56:19;1999.90;;;999.90;;
13250;SDS011;6692;50.710;7.180;2023-06-10T01:58:21;1999.90;;;999.90;;
13250;SDS011;6692;50.710;7.180;2023-06-10T02:00:21;1999.90;;;999.90;;
13250;SDS011;6692;50.710;7.180;2023-06-10T02:02:22;1999.90;;;999.90;;
13250;SDS011;6692;50.710;7.180;2023-06-10T02:04:23;1999.90;;;999.90;;
13250;SDS011;6692;50.710;7.180;2023-06-10T02:06:23;1999.90;;;999.90;;
13250;SDS011;6692;50.710;7.180;2023-06-10T02:08:24;1999.90;;;999.90;;
13250;SDS011;6692;50.710;7.180;2023-06-10T02:10:26;1999.90;;;999.90;;
13250;SDS011;6692;50.710;7.180;2023-06-10T02:12:26;1999.90;;;999.90;;
13250;SDS011;6692;50.710;7.180;2023-06-10T02:14:27;1999.90;;;999.90;;
13250;SDS011;6692;50.710;7.180;2023-06-10T02:16:28;1999.90;;;999.90;;
13250;SDS011;6692;50.710;7.180;2023-06-10T02:18:28;1999.90;;;999.90;;
13250;SDS011;6692;50.710;7.180;2023-06-10T02:20:29;1999.90;;;999.90;;
13250;SDS011;6692;50.710;7.180;2023-06-10T02:22:30;1999.90;;;999.90;;
13250;SDS011;6692;50.710;7.180;2023-06-10T02:24:31;1999.90;;;999.90;;
13250;SDS011;6692;50.710;7.180;2023-06-10T02:26:32;1999.90;;;999.90;;
13250;SDS011;6692;50.710;7.180;2023-06-10T02:28:33;1999.90;;;999.90;;
13250;SDS011;6692;50.710;7.180;2023-06-10T02:30:35;1999.90;;;999.90;;
13250;SDS011;6692;50.710;7.180;2023-06-10T02:32:36;1999.90;;;999.90;;
13250;SDS011;6692;50.710;7.180;2023-06-10T02:34:36;1999.90;;;999.90;;
13250;SDS011;6692;50.710;7.180;2023-06-10T02:36:37;1999.90;;;999.90;;
13250;SDS011;6692;50.710;7.180;2023-06-10T02:38:38;1999.90;;;999.90;;
13250;SDS011;6692;50.710;7.180;2023-06-10T02:40:39;1999.90;;;999.90;;
13250;SDS011;6692;50.710;7.180;2023-06-10T02:42:39;1999.90;;;999.90;;
13250;SDS011;6692;50.710;7.180;2023-06-10T02:44:40;1999.90;;;999.90;;
13250;SDS011;6692;50.710;7.180;2023-06-10T02:46:41;1999.90;;;999.90;;
13250;SDS011;6692;50.710;7.180;2023-06-10T02:48:42;1999.90;;;999.90;;
13250;SDS011;6692;50.710;7.180;2023-06-10T02:50:43;1999.90;;;999.90;;
13250;SDS011;6692;50.710;7.180;2023-06-10T02:52:44;1999.90;;;999.90;;
13250;SDS011;6692;50.710;7.180;2023-06-10T02:54:45;1999.90;;;999.90;;
13250;SDS011;6692;50.710;7.180;2023-06-10T02:56:46;1999.90;;;999.90;;
13250;SDS011;6692;50.710;7.180;2023-06-10T02:58:47;1999.90;;;999.90;;
13250;SDS011;6692;50.710;7.180;2023-06-10T03:00:47;1999.90;;;999.90;;
13250;SDS011;6692;50.710;7.180;2023-06-10T03:02:48;1999.90;;;999.90;;
13250;SDS011;6692;50.710;7.180;2023-06-10T03:04:49;1999.90;;;999.90;;
13250;SDS011;6692;50.710;7.180;2023-06-10T03:06:50;1999.90;;;999.90;;
13250;SDS011;6692;50.710;7.180;2023-06-10T03:08:51;1999.90;;;999.90;;
13250;SDS011;6692;50.710;7.180;2023-06-10T03:10:52;1999.90;;;999.90;;
13250;SDS011;6692;50.710;7.180;2023-06-10T03:12:53;1999.90;;;999.90;;
13250;SDS011;6692;50.710;7.180;2023-06-10T03:14:53;1999.90;;;999.90;;
13250;SDS011;6692;50.710;7.180;2023-06-10T03:16:54;1999.90;;;999.90;;
13250;SDS011;6692;50.710;7.180;2023-06-10T03:18:55;1999.90;;;999.90;;
13250;SDS011;6692;50.710;7.180;2023-06-10T03:20:55;1999.90;;;999.90;;
13250;SDS011;6692;50.710;7.180;2023-06-10T03:22:56;1999.90;;;999.90;;
13250;SDS011;6692;50.710;7.180;2023-06-10T03:24:58;1999.90;;;999.90;;
13250;SDS011;6692;50.710;7.180;2023-06-10T03:26:59;1999.90;;;999.90;;
13250;SDS011;6692;50.710;7.180;2023-06-10T03:29:00;1999.90;;;999.90;;
13250;SDS011;6692;50.710;7.180;2023-06-10T03:31:00;1999.90;;;999.90;;
13250;SDS011;6692;50.710;7.180;2023-06-10T03:33:01;1999.90;;;999.90;;
13250;SDS011;6692;50.710;7.180;2023-06-10T03:35:02;1999.90;;;999.90;;
13250;SDS011;6692;50.710;7.180;2023-06-10T03:37:03;1999.90;;;999.90;;
13250;SDS011;6692;50.710;7.180;2023-06-10T03:39:05;1999.90;;;999.90;;
13250;SDS011;6692;50.710;7.180;2023-06-10T03:41:05;1999.90;;;999.90;;
13250;SDS011;6692;50.710;7.180;2023-06-10T03:43:06;1999.90;;;999.90;;
13250;SDS011;6692;50.710;7.180;2023-06-10T03:45:07;1999.90;;;999.90;;
13250;SDS011;6692;50.710;7.180;2023-06-10T03:47:08;1999.90;;;999.90;;
13250;SDS011;6692;50.710;7.180;2023-06-10T03:49:09;1999.90;;;999.90;;
13250;SDS011;6692;50.710;7.180;2023-06-10T03:51:10;1999.90;;;999.90;;
13250;SDS011;6692;50.710;7.180;2023-06-10T03:53:11;1999.90;;;999.90;;
13250;SDS011;6692;50.710;7.180;2023-06-10T03:55:11;1999.90;;;999.90;;
13250;SDS011;6692;50.710;7.180;2023-06-10T03:57:12;1999.90;;;999.90;;
13250;SDS011;6692;50.710;7.180;2023-06-10T03:59:13;1999.90;;;999.90;;
13250;SDS011;6692;50.710;7.180;2023-06-10T04:01:15;1999.90;;;999.90;;
13250;SDS011;6692;50.710;7.180;2023-06-10T04:03:16;1999.90;;;999.90;;
13250;SDS011;6692;50.710;7.180;2023-06-10T04:05:18;1999.90;;;999.90;;
13250;SDS011;6692;50.710;7.180;2023-06-10T04:07:18;1999.90;;;999.90;;
13250;SDS011;6692;50.710;7.180;2023-06-10T04:09:19;1999.90;;;999.90;;
13250;SDS011;6692;50.710;7.180;2023-06-10T04:11:19;1999.90;;;999.90;;
13250;SDS011;6692;50.710;7.180;2023-06-10T04:13:20;1999.90;;;999.90;;
13250;SDS011;6692;50.710;7.180;2023-06-10T04:15:21;1999.90;;;999.90;;
13250;SDS011;6692;50.710;7.180;2023-06-10T04:17:21;1999.90;;;999.90;;
13250;SDS011;6692;50.710;7.180;2023-06-10T04:19:23;1999.90;;;999.90;;
13250;SDS011;6692;50.710;7.180;2023-06-10T04:21:23;1999.90;;;999.90;;
13250;SDS011;6692;50.710;7.180;2023-06-10T04:23:24;1999.90;;;999.90;;
13250;SDS011;6692;50.710;7.180;2023-06-10T04:25:25;1999.90;;;999.90;;
13250;SDS011;6692;50.710;7.180;2023-06-10T04:27:26;1999.90;;;999.90;;
13250;SDS011;6692;50.710;7.180;2023-06-10T04:29:27;1999.90;;;999.90;;
13250;SDS011;6692;50.710;7.180;2023-06-10T04:31:28;1999.90;;;999.90;;
13250;SDS011;6692;50.710;7.180;2023-06-10T04:33:28;1999.90;;;999.90;;
13250;SDS011;6692;50.710;7.180;2023-06-10T04:35:29;1999.90;;;999.90;;
13250;SDS011;6692;50.710;7.180;2023-06-10T04:37:31;1999.90;;;999.90;;
13250;SDS011;6692;50.710;7.180;2023-06-10T04:39:31;1999.90;;;999.90;;
13250;SDS011;6692;50.710;7.180;2023-06-10T04:41:32;1999.90;;;999.90;;
13250;SDS011;6692;50.710;7.180;2023-06-10T04:43:33;1999.90;;;999.90;;
13250;SDS011;6692;50.710;7.180;2023-06-10T04:45:34;1999.90;;;999.90;;
13250;SDS011;6692;50.710;7.180;2023-06-10T04:47:36;1999.90;;;999.90;;
13250;SDS011;6692;50.710;7.180;2023-06-10T04:49:36;1999.90;;;999.90;;
13250;SDS011;6692;50.710;7.180;2023-06-10T04:51:37;1999.90;;;999.90;;
13250;SDS011;6692;50.710;7.180;2023-06-10T04:53:38;1999.90;;;999.90;;
13250;SDS011;6692;50.710;7.180;2023-06-10T04:55:39;1999.90;;;999.90;;
13250;SDS011;6692;50.710;7.180;2023-06-10T04:57:39;1999.90;;;999.90;;
13250;SDS011;6692;50.710;7.180;2023-06-10T04:59:40;1999.90;;;999.90;;
13250;SDS011;6692;50.710;7.180;2023-06-10T05:01:41;1999.90;;;999.90;;
13250;SDS011;6692;50.710;7.180;2023-06-10T05:03:41;1999.90;;;999.90;;
13250;SDS011;6692;50.710;7.180;2023-06-10T05:05:42;1999.90;;;999.90;;
13250;SDS011;6692;50.710;7.180;2023-06-10T05:07:43;1999.90;;;999.90;;
13250;SDS011;6692;50.710;7.180;2023-06-10T05:09:43;1999.90;;;999.90;;
13250;SDS011;6692;50.710;7.180;2023-06-10T05:11:44;1999.90;;;999.90;;
13250;SDS011;6692;50.710;7.180;2023-06-10T05:13:45;1999.90;;;999.90;;
13250;SDS011;6692;50.710;7.180;2023-06-10T05:15:46;1999.90;;;999.90;;
13250;SDS011;6692;50.710;7.180;2023-06-10T05:17:46;1999.90;;;999.90;;
13250;SDS011;6692;50.710;7.180;2023-06-10T05:19:47;1999.90;;;999.90;;
13250;SDS011;6692;50.710;7.180;2023-06-10T05:21:49;1999.90;;;999.90;;
13250;SDS011;6692;50.710;7.180;2023-06-10T05:23:49;1999.90;;;999.90;;
13250;SDS011;6692;50.710;7.180;2023-06-10T05:25:50;1999.90;;;999.90;;
13250;SDS011;6692;50.710;7.180;2023-06-10T05:27:52;1999.90;;;999.90;;
13250;SDS011;6692;50.710;7.180;2023-06-10T05:29:52;1999.90;;;999.90;;
13250;SDS011;6692;50.710;7.180;2023-06-10T05:31:53;1999.90;;;999.90;;
13250;SDS011;6692;50.710;7.180;2023-06-10T05:33:54;1999.90;;;999.90;;
13250;SDS011;6692;50.710;7.180;2023-06-10T05:35:54;1999.90;;;999.90;;
13250;SDS011;6692;50.710;7.180;2023-06-10T05:37:55;1999.90;;;999.90;;
13250;SDS011;6692;50.710;7.180;2023-06-10T05:39:56;1999.90;;;999.90;;
13250;SDS011;6692;50.710;7.180;2023-06-10T05:41:57;1999.90;;;999.90;;
13250;SDS011;6692;50.710;7.180;2023-06-10T05:43:58;1999.90;;;999.90;;
13250;SDS011;6692;50.710;7.180;2023-06-10T05:45:59;1999.90;;;999.90;;
13250;SDS011;6692;50.710;7.180;2023-06-10T05:47:59;1999.90;;;999.90;;
13250;SDS011;6692;50.710;7.180;2023-06-10T05:50:00;1999.90;;;999.90;;
13250;SDS011;6692;50.710;7.180;2023-06-10T05:52:02;1999.90;;;999.90;;
13250;SDS011;6692;50.710;7.180;2023-06-10T05:54:03;1999.90;;;999.90;;
13250;SDS011;6692;50.710;7.180;2023-06-10T05:56:05;1999.90;;;999.90;;
13250;SDS011;6692;50.710;7.180;2023-06-10T05:58:05;1999.90;;;999.90;;
13250;SDS011;6692;50.710;7.180;2023-06-10T06:00:06;1999.90;;;999.90;;
13250;SDS011;6692;50.710;7.180;2023-06-10T06:02:08;1999.90;;;999.90;;
13250;SDS011;6692;50.710;7.180;2023-06-10T06:04:09;1999.90;;;999.90;;
13250;SDS011;6692;50.710;7.180;2023-06-10T06:06:11;1999.90;;;999.90;;
13250;SDS011;6692;50.710;7.180;2023-06-10T06:08:12;1999.90;;;999.90;;
13250;SDS011;6692;50.710;7.180;2023-06-10T06:10:14;1999.90;;;999.90;;
13250;SDS011;6692;50.710;7.180;2023-06-10T06:12:15;1999.90;;;999.90;;
13250;SDS011;6692;50.710;7.180;2023-06-10T06:14:15;1999.90;;;999.90;;
13250;SDS011;6692;50.710;7.180;2023-06-10T06:16:16;1999.90;;;999.90;;
13250;SDS011;6692;50.710;7.180;2023-06-10T06:18:17;1999.90;;;999.90;;
13250;SDS011;6692;50.710;7.180;2023-06-10T06:20:18;1999.90;;;999.90;;
13250;SDS011;6692;50.710;7.180;2023-06-10T06:22:21;1999.90;;;999.90;;
13250;SDS011;6692;50.710;7.180;2023-06-10T06:24:22;1999.90;;;999.90;;
13250;SDS011;6692;50.710;7.180;2023-06-10T06:26:23;1999.90;;;999.90;;
13250;SDS011;6692;50.710;7.180;2023-06-10T06:28:23;1999.90;;;999.90;;
13250;SDS011;6692;50.710;7.180;2023-06-10T06:30:25;1999.90;;;999.90;;
13250;SDS011;6692;50.710;7.180;2023-06-10T06:32:26;1999.90;;;999.90;;
13250;SDS011;6692;50.710;7.180;2023-06-10T06:34:27;1999.90;;;999.90;;
13250;SDS011;6692;50.710;7.180;2023-06-10T06:36:28;1999.90;;;999.90;;
13250;SDS011;6692;50.710;7.180;2023-06-10T06:38:30;1999.90;;;999.90;;
13250;SDS011;6692;50.710;7.180;2023-06-10T06:40:31;1999.90;;;999.90;;
13250;SDS011;6692;50.710;7.180;2023-06-10T06:42:33;1999.90;;;999.90;;
13250;SDS011;6692;50.710;7.180;2023-06-10T06:44:34;1999.90;;;999.90;;
13250;SDS011;6692;50.710;7.180;2023-06-10T06:46:34;1999.90;;;999.90;;
13250;SDS011;6692;50.710;7.180;2023-06-10T06:48:35;1999.90;;;999.90;;
13250;SDS011;6692;50.710;7.180;2023-06-10T06:50:36;1999.90;;;999.90;;
13250;SDS011;6692;50.710;7.180;2023-06-10T06:52:36;1999.90;;;999.90;;
13250;SDS011;6692;50.710;7.180;2023-06-10T06:54:37;1999.90;;;999.90;;
13250;SDS011;6692;50.710;7.180;2023-06-10T06:56:38;1999.90;;;999.90;;
13250;SDS011;6692;50.710;7.180;2023-06-10T06:58:39;1999.90;;;999.90;;
13250;SDS011;6692;50.710;7.180;2023-06-10T07:00:39;1999.90;;;999.90;;
13250;SDS011;6692;50.710;7.180;2023-06-10T07:02:40;1999.90;;;999.90;;
13250;SDS011;6692;50.710;7.180;2023-06-10T07:04:41;1999.90;;;999.90;;
13250;SDS011;6692;50.710;7.180;2023-06-10T07:06:42;1999.90;;;999.90;;
13250;SDS011;6692;50.710;7.180;2023-06-10T07:08:43;1999.90;;;999.90;;
13250;SDS011;6692;50.710;7.180;2023-06-10T07:10:44;1999.90;;;999.90;;
13250;SDS011;6692;50.710;7.180;2023-06-10T07:12:45;1999.90;;;999.90;;
13250;SDS011;6692;50.710;7.180;2023-06-10T07:14:46;1999.90;;;999.90;;
13250;SDS011;6692;50.710;7.180;2023-06-10T07:16:47;1999.90;;;999.90;;
13250;SDS011;6692;50.710;7.180;2023-06-10T07:18:48;1999.90;;;999.90;;
13250;SDS011;6692;50.710;7.180;2023-06-10T07:20:48;1999.90;;;999.90;;
13250;SDS011;6692;50.710;7.180;2023-06-10T07:22:50;1999.90;;;999.90;;
13250;SDS011;6692;50.710;7.180;2023-06-10T07:24:50;1999.90;;;999.90;;
13250;SDS011;6692;50.710;7.180;2023-06-10T07:26:51;1999.90;;;999.90;;
13250;SDS011;6692;50.710;7.180;2023-06-10T07:28:52;1999.90;;;999.90;;
13250;SDS011;6692;50.710;7.180;2023-06-10T07:30:53;1999.90;;;999.90;;
13250;SDS011;6692;50.710;7.180;2023-06-10T07:32:53;1999.90;;;999.90;;
13250;SDS011;6692;50.710;7.180;2023-06-10T07:34:54;1999.90;;;999.90;;
13250;SDS011;6692;50.710;7.180;2023-06-10T07:36:55;1999.90;;;999.90;;
13250;SDS011;6692;50.710;7.180;2023-06-10T07:38:56;1999.90;;;999.90;;
13250;SDS011;6692;50.710;7.180;2023-06-10T07:40:56;1999.90;;;999.90;;
13250;SDS011;6692;50.710;7.180;2023-06-10T07:42:57;1999.90;;;999.90;;
13250;SDS011;6692;50.710;7.180;2023-06-10T07:44:59;1999.90;;;999.90;;
13250;SDS011;6692;50.710;7.180;2023-06-10T07:47:00;1999.90;;;999.90;;
13250;SDS011;6692;50.710;7.180;2023-06-10T08:28:05;1999.90;;;999.90;;
13250;SDS011;6692;50.710;7.180;2023-06-10T08:30:06;1999.90;;;999.90;;
13250;SDS011;6692;50.710;7.180;2023-06-10T08:32:09;1999.90;;;999.90;;
13250;SDS011;6692;50.710;7.180;2023-06-10T08:55:13;1999.90;;;999.90;;
13250;SDS011;6692;50.710;7.180;2023-06-10T08:57:16;1999.90;;;999.90;;
13250;SDS011;6692;50.710;7.180;2023-06-10T08:59:17;1999.90;;;999.90;;
13250;SDS011;6692;50.710;7.180;2023-06-10T09:01:18;1999.90;;;999.90;;
13250;SDS011;6692;50.710;7.180;2023-06-10T09:03:18;1999.90;;;999.90;;
13250;SDS011;6692;50.710;7.180;2023-06-10T09:05:19;1999.90;;;999.90;;
13250;SDS011;6692;50.710;7.180;2023-06-10T09:07:21;1999.90;;;999.90;;
13250;SDS011;6692;50.710;7.180;2023-06-10T09:22:30;1999.90;;;999.90;;
13250;SDS011;6692;50.710;7.180;2023-06-10T09:24:31;1999.90;;;999.90;;
13250;SDS011;6692;50.710;7.180;2023-06-10T09:26:32;1999.90;;;999.90;;
13250;SDS011;6692;50.710;7.180;2023-06-10T09:28:33;1999.90;;;999.90;;
13250;SDS011;6692;50.710;7.180;2023-06-10T09:30:34;1999.90;;;999.90;;
13250;SDS011;6692;50.710;7.180;2023-06-10T10:43:31;1999.90;;;999.90;;
13250;SDS011;6692;50.710;7.180;2023-06-10T10:45:33;1999.90;;;999.90;;
13250;SDS011;6692;50.710;7.180;2023-06-10T10:47:32;1999.90;;;999.90;;
13250;SDS011;6692;50.710;7.180;2023-06-10T10:49:33;1999.90;;;999.90;;
13250;SDS011;6692;50.710;7.180;2023-06-10T10:51:33;1999.90;;;999.90;;
13250;SDS011;6692;50.710;7.180;2023-06-10T10:53:34;1999.90;;;999.90;;
13250;SDS011;6692;50.710;7.180;2023-06-10T10:55:35;1999.90;;;999.90;;
13250;SDS011;6692;50.710;7.180;2023-06-10T10:57:36;1999.90;;;999.90;;
13250;SDS011;6692;50.710;7.180;2023-06-10T11:01:44;1999.90;;;999.90;;
13250;SDS011;6692;50.710;7.180;2023-06-10T11:03:45;1999.90;;;999.90;;
13250;SDS011;6692;50.710;7.180;2023-06-10T11:05:46;1999.90;;;999.90;;
13250;SDS011;6692;50.710;7.180;2023-06-10T11:07:51;1999.90;;;999.90;;
13250;SDS011;6692;50.710;7.180;2023-06-10T11:09:57;1999.90;;;999.90;;
13250;SDS011;6692;50.710;7.180;2023-06-10T11:12:01;1999.90;;;999.90;;
13250;SDS011;6692;50.710;7.180;2023-06-10T11:14:06;1999.90;;;999.90;;
13250;SDS011;6692;50.710;7.180;2023-06-10T11:16:06;1999.90;;;999.90;;
13250;SDS011;6692;50.710;7.180;2023-06-10T11:18:09;1999.90;;;999.90;;
13250;SDS011;6692;50.710;7.180;2023-06-10T11:20:09;1999.90;;;999.90;;
13250;SDS011;6692;50.710;7.180;2023-06-10T11:22:15;1999.90;;;999.90;;
13250;SDS011;6692;50.710;7.180;2023-06-10T11:24:11;1999.90;;;999.90;;
13250;SDS011;6692;50.710;7.180;2023-06-10T11:26:13;1999.90;;;999.90;;
13250;SDS011;6692;50.710;7.180;2023-06-10T11:28:17;1999.90;;;999.90;;
13250;SDS011;6692;50.710;7.180;2023-06-10T11:30:19;1999.90;;;999.90;;
13250;SDS011;6692;50.710;7.180;2023-06-10T11:32:20;1999.90;;;999.90;;
13250;SDS011;6692;50.710;7.180;2023-06-10T11:34:21;1999.90;;;999.90;;
13250;SDS011;6692;50.710;7.180;2023-06-10T11:36:22;1999.90;;;999.90;;
13250;SDS011;6692;50.710;7.180;2023-06-10T11:38:22;1999.90;;;999.90;;
13250;SDS011;6692;50.710;7.180;2023-06-10T11:40:23;1999.90;;;999.90;;
13250;SDS011;6692;50.710;7.180;2023-06-10T11:42:23;1999.90;;;999.90;;
13250;SDS011;6692;50.710;7.180;2023-06-10T11:44:25;1999.90;;;999.90;;
13250;SDS011;6692;50.710;7.180;2023-06-10T11:46:25;1999.90;;;999.90;;
13250;SDS011;6692;50.710;7.180;2023-06-10T11:48:27;1999.90;;;999.90;;
13250;SDS011;6692;50.710;7.180;2023-06-10T11:50:30;1999.90;;;999.90;;
13250;SDS011;6692;50.710;7.180;2023-06-10T11:52:31;1999.90;;;999.90;;
13250;SDS011;6692;50.710;7.180;2023-06-10T11:54:32;1999.90;;;999.90;;
13250;SDS011;6692;50.710;7.180;2023-06-10T11:56:33;1999.90;;;999.90;;
13250;SDS011;6692;50.710;7.180;2023-06-10T11:58:34;1999.90;;;999.90;;
13250;SDS011;6692;50.710;7.180;2023-06-10T12:00:41;1999.90;;;999.90;;
13250;SDS011;6692;50.710;7.180;2023-06-10T12:02:36;1999.90;;;999.90;;
13250;SDS011;6692;50.710;7.180;2023-06-10T12:04:37;1999.90;;;999.90;;
13250;SDS011;6692;50.710;7.180;2023-06-10T12:06:40;1999.90;;;999.90;;
13250;SDS011;6692;50.710;7.180;2023-06-10T12:08:42;1999.90;;;999.90;;
13250;SDS011;6692;50.710;7.180;2023-06-10T12:10:42;1999.90;;;999.90;;
13250;SDS011;6692;50.710;7.180;2023-06-10T12:12:43;1999.90;;;999.90;;
13250;SDS011;6692;50.710;7.180;2023-06-10T12:14:57;1999.90;;;999.90;;
13250;SDS011;6692;50.710;7.180;2023-06-10T12:16:58;1999.90;;;999.90;;
13250;SDS011;6692;50.710;7.180;2023-06-10T12:19:01;1999.90;;;999.90;;
13250;SDS011;6692;50.710;7.180;2023-06-10T12:21:02;1999.90;;;999.90;;
13250;SDS011;6692;50.710;7.180;2023-06-10T12:23:09;1999.90;;;999.90;;
13250;SDS011;6692;50.710;7.180;2023-06-10T12:25:10;1999.90;;;999.90;;
13250;SDS011;6692;50.710;7.180;2023-06-10T12:27:11;1999.90;;;999.90;;
13250;SDS011;6692;50.710;7.180;2023-06-10T12:29:14;1999.90;;;999.90;;
13250;SDS011;6692;50.710;7.180;2023-06-10T12:31:13;1999.90;;;999.90;;
13250;SDS011;6692;50.710;7.180;2023-06-10T12:33:16;1999.90;;;999.90;;
13250;SDS011;6692;50.710;7.180;2023-06-10T12:35:17;1999.90;;;999.90;;
13250;SDS011;6692;50.710;7.180;2023-06-10T12:37:17;1999.90;;;999.90;;
13250;SDS011;6692;50.710;7.180;2023-06-10T12:39:18;688.30;;;651.80;;
13250;SDS011;6692;50.710;7.180;2023-06-10T12:41:19;537.07;;;513.13;;
13250;SDS011;6692;50.710;7.180;2023-06-10T12:43:20;537.40;;;514.70;;
13250;SDS011;6692;50.710;7.180;2023-06-10T12:45:28;518.93;;;497.60;;
13250;SDS011;6692;50.710;7.180;2023-06-10T12:47:30;984.80;;;638.77;;
13250;SDS011;6692;50.710;7.180;2023-06-10T12:49:30;1457.07;;;785.87;;
13250;SDS011;6692;50.710;7.180;2023-06-10T12:51:31;270.43;;;260.97;;
13250;SDS011;6692;50.710;7.180;2023-06-10T12:53:32;175.40;;;169.07;;
13250;SDS011;6692;50.710;7.180;2023-06-10T12:55:33;192.27;;;185.57;;
13250;SDS011;6692;50.710;7.180;2023-06-10T12:57:33;100.93;;;97.23;;
13250;SDS011;6692;50.710;7.180;2023-06-10T12:59:34;119.30;;;114.90;;
13250;SDS011;6692;50.710;7.180;2023-06-10T13:01:35;122.53;;;118.13;;
13250;SDS011;6692;50.710;7.180;2023-06-10T13:03:35;88.97;;;85.63;;
13250;SDS011;6692;50.710;7.180;2023-06-10T13:05:36;103.17;;;99.27;;
13250;SDS011;6692;50.710;7.180;2023-06-10T13:07:37;103.03;;;99.20;;
13250;SDS011;6692;50.710;7.180;2023-06-10T13:09:38;102.57;;;98.80;;
13250;SDS011;6692;50.710;7.180;2023-06-10T13:11:39;99.77;;;96.07;;
13250;SDS011;6692;50.710;7.180;2023-06-10T13:13:40;105.43;;;101.53;;
13250;SDS011;6692;50.710;7.180;2023-06-10T13:15:41;119.20;;;114.80;;
13250;SDS011;6692;50.710;7.180;2023-06-10T13:17:43;150.57;;;145.17;;
13250;SDS011;6692;50.710;7.180;2023-06-10T13:19:43;151.00;;;145.57;;
13250;SDS011;6692;50.710;7.180;2023-06-10T13:21:44;172.43;;;166.37;;
13250;SDS011;6692;50.710;7.180;2023-06-10T13:23:45;180.07;;;173.77;;
13250;SDS011;6692;50.710;7.180;2023-06-10T13:25:46;158.50;;;152.90;;
13250;SDS011;6692;50.710;7.180;2023-06-10T13:27:46;135.67;;;130.77;;
13250;SDS011;6692;50.710;7.180;2023-06-10T13:29:47;143.50;;;138.30;;
13250;SDS011;6692;50.710;7.180;2023-06-10T13:31:48;132.20;;;127.50;;
13250;SDS011;6692;50.710;7.180;2023-06-10T13:33:48;121.37;;;116.97;;
13250;SDS011;6692;50.710;7.180;2023-06-10T13:35:49;112.33;;;108.30;;
13250;SDS011;6692;50.710;7.180;2023-06-10T13:37:50;103.00;;;99.23;;
13250;SDS011;6692;50.710;7.180;2023-06-10T13:39:51;98.10;;;94.50;;
13250;SDS011;6692;50.710;7.180;2023-06-10T13:41:51;99.37;;;95.67;;
13250;SDS011;6692;50.710;7.180;2023-06-10T13:43:52;87.07;;;83.87;;
13250;SDS011;6692;50.710;7.180;2023-06-10T13:45:53;84.03;;;80.57;;
13250;SDS011;6692;50.710;7.180;2023-06-10T13:47:53;78.47;;;75.53;;
13250;SDS011;6692;50.710;7.180;2023-06-10T13:49:54;77.67;;;74.70;;
13250;SDS011;6692;50.710;7.180;2023-06-10T13:51:55;76.70;;;73.80;;
13250;SDS011;6692;50.710;7.180;2023-06-10T13:53:56;75.03;;;72.20;;
13250;SDS011;6692;50.710;7.180;2023-06-10T13:55:56;73.70;;;70.90;;